Maybeury, West Virginia
Current Conditions -  °F | °C
As of 9:15 PM on Wednesday 22 Oct 2014 (Local Time) from KBLF Reporting Station
Overcast Overcast  
Wind Chill: 41°   Ceiling: 800
Heat Index: 44°   Visibility: 10mi
Dew Point: 39°   Wind: 6mph
Humidity: 82%   Direction: 300°WNW
Pressure: 30.17"   Gusts: NA
Location:  37.37°N, 81.37°W
Report Text: KBLF 230115Z AUTO 30005KT 10SM OVC008 07/04 A3017 RMK AO2 CIG 007V013 T00670039
Loading
Personal Weather Stations






























Interactive Weather Map
Tropical Storm Tracking
New forecast layout! Learn more

10-Day Weather Forecast

Advertisements
Track Severe Weather on mobile